Map

Track Data

SID SEASON NUMBER BASIN SUBBASIN NAME ISO_TIME NATURE LAT LON WMO_WIND WMO_PRES WMO_AGENCY TRACK_TYPE DIST2LAND LANDFALL IFLAG USA_AGENCY USA_ATCF_ID USA_LAT USA_LON USA_RECORD USA_STATUS USA_WIND USA_PRES USA_SSHS USA_R34_NE USA_R34_SE USA_R34_SW USA_R34_NW USA_R50_NE USA_R50_SE USA_R50_SW USA_R50_NW USA_R64_NE USA_R64_SE USA_R64_SW USA_R64_NW USA_POCI USA_ROCI USA_RMW USA_EYE TOKYO_LAT TOKYO_LON TOKYO_GRADE TOKYO_WIND TOKYO_PRES TOKYO_R50_DIR TOKYO_R50_LONG TOKYO_R50_SHORT TOKYO_R30_DIR TOKYO_R30_LONG TOKYO_R30_SHORT TOKYO_LAND CMA_LAT CMA_LON CMA_CAT CMA_WIND CMA_PRES HKO_LAT HKO_LON HKO_CAT HKO_WIND HKO_PRES NEWDELHI_LAT NEWDELHI_LON NEWDELHI_GRADE NEWDELHI_WIND NEWDELHI_PRES NEWDELHI_CI NEWDELHI_DP NEWDELHI_POCI REUNION_LAT REUNION_LON REUNION_TYPE REUNION_WIND REUNION_PRES REUNION_TNUM REUNION_CI REUNION_RMW REUNION_R34_NE REUNION_R34_SE REUNION_R34_SW REUNION_R34_NW REUNION_R50_NE REUNION_R50_SE REUNION_R50_SW REUNION_R50_NW REUNION_R64_NE REUNION_R64_SE REUNION_R64_SW REUNION_R64_NW BOM_LAT BOM_LON BOM_TYPE BOM_WIND BOM_PRES BOM_TNUM BOM_CI BOM_RMW BOM_R34_NE BOM_R34_SE BOM_R34_SW BOM_R34_NW BOM_R50_NE BOM_R50_SE BOM_R50_SW BOM_R50_NW BOM_R64_NE BOM_R64_SE BOM_R64_SW BOM_R64_NW BOM_ROCI BOM_POCI BOM_EYE BOM_POS_METHOD BOM_PRES_METHOD NADI_LAT NADI_LON NADI_CAT NADI_WIND NADI_PRES WELLINGTON_LAT WELLINGTON_LON WELLINGTON_WIND WELLINGTON_PRES DS824_LAT DS824_LON DS824_STAGE DS824_WIND DS824_PRES TD9636_LAT TD9636_LON TD9636_STAGE TD9636_WIND TD9636_PRES TD9635_LAT TD9635_LON TD9635_WIND TD9635_PRES TD9635_ROCI NEUMANN_LAT NEUMANN_LON NEUMANN_CLASS NEUMANN_WIND NEUMANN_PRES MLC_LAT MLC_LON MLC_CLASS MLC_WIND MLC_PRES USA_GUST BOM_GUST BOM_GUST_PER REUNION_GUST REUNION_GUST_PER USA_SEAHGT USA_SEARAD_NE USA_SEARAD_SE USA_SEARAD_SW USA_SEARAD_NW STORM_SPEED STORM_DIR
1874304N14283 1874 21 NA CS NOT_NAMED 1874-10-31 00:00:00 TS 14.4333 -77.2000 40 hurdat_atl main 369 346 O____________O hurdat_atl AL071874 13.5000 -78.4000 TS 40 0 16.3000 -74.8000 TS 40 4 0
1874304N14283 1874 21 NA CS NOT_NAMED 1874-10-31 03:00:00 TS 14.6475 -77.1941 main 346 313 P____________P AL071874 13.7950 -78.3650 TS 40 0 16.3525 -74.8525 TS 40 4 5
1874304N14283 1874 21 NA CS NOT_NAMED 1874-10-31 06:00:00 TS 14.8667 -77.1667 40 hurdat_atl main 313 291 O____________O hurdat_atl AL071874 14.1000 -78.3000 TS 40 0 16.4000 -74.9000 TS 40 5 11
1874304N14283 1874 21 NA CS NOT_NAMED 1874-10-31 09:00:00 TS 15.0908 -77.1092 main 291 268 P____________P AL071874 14.4150 -78.1926 TS 45 0 16.4425 -74.9425 TS 45 4 13
1874304N14283 1874 21 NA CS NOT_NAMED 1874-10-31 12:00:00 TS 15.3000 -77.0667 50 hurdat_atl main 268 246 O____________O hurdat_atl AL071874 14.7000 -78.1000 TS 50 0 16.5000 -75.0000 TS 50 4 0
1874304N14283 1874 21 NA CS NOT_NAMED 1874-10-31 15:00:00 TS 15.4667 -77.0999 main 246 235 P____________P AL071874 14.9000 -78.0999 TS 50 0 16.6000 -75.1000 TS 50 3 348
1874304N14283 1874 21 NA CS NOT_NAMED 1874-10-31 18:00:00 TS 15.6333 -77.1333 50 hurdat_atl main 235 212 O____________O hurdat_atl AL071874 15.1000 -78.1000 TS 50 0 16.7000 -75.2000 TS 50 4 4
1874304N14283 1874 21 NA CS NOT_NAMED 1874-10-31 21:00:00 TS 15.8575 -77.0909 main 201 180 P____________P AL071874 15.4075 -78.0076 TS 55 0 16.7575 -75.2575 TS 55 4 13
1874304N14283 1874 21 NA CS NOT_NAMED 1874-11-01 00:00:00 TS 16.0667 -77.0333 60 hurdat_atl main 180 169 O____________O hurdat_atl AL071874 15.7000 -77.9000 TS 60 0 16.8000 -75.3000 TS 60 3 11
1874304N14283 1874 21 NA CS NOT_NAMED 1874-11-01 03:00:00 TS 16.1933 -77.0166 main 169 158 P____________P AL071874 15.8650 -77.8499 TS 60 0 16.8500 -75.3500 TS 60 2 11
1874304N14283 1874 21 NA CS NOT_NAMED 1874-11-01 06:00:00 TS 16.3000 -77.0000 60 hurdat_atl main 158 147 O____________O hurdat_atl AL071874 16.0000 -77.8000 TS 60 0 16.9000 -75.4000 TS 60 2 18
1874304N14283 1874 21 NA CS NOT_NAMED 1874-11-01 09:00:00 TS 16.4225 -76.9400 main 148 127 P____________P AL071874 16.1700 -77.7075 TS 65 1 16.9274 -75.4051 TS 60 3 17
1874304N14283 1874 21 NA CS NOT_NAMED 1874-11-01 12:00:00 TS 16.6000 -76.9000 70 hurdat_atl main 127 95 O____________O hurdat_atl AL071874 16.4000 -77.6000 HU 70 1 17.0000 -75.5000 TS 60 5 0
1874304N14283 1874 21 NA CS NOT_NAMED 1874-11-01 15:00:00 TS 16.8825 -76.9350 main 95 59 P____________P AL071874 16.7350 -77.5000 HU 75 1 17.1776 -75.8049 TS 67 6 351
1874304N14283 1874 21 NA CS NOT_NAMED 1874-11-01 18:00:00 TS 17.2000 -77.0000 80 hurdat_atl main 59 30 O____________O hurdat_atl AL071874 17.1000 -77.4000 HU 80 1 17.4000 -76.2000 HU 75 6 349
1874304N14283 1874 21 NA CS NOT_NAMED 1874-11-01 21:00:00 TS 17.4667 -77.0525 main 24 10 P____________P AL071874 17.4000 -77.2999 HU 85 2 17.6000 -76.5575 HU 80 5 349
1874304N14283 1874 21 NA CS NOT_NAMED 1874-11-02 00:00:00 TS 17.7333 -77.1000 90 hurdat_atl main 10 0 O____________O hurdat_atl AL071874 17.7000 -77.2000 HU 90 2 17.8000 -76.9000 HU 85 6 351
1874304N14283 1874 21 NA CS NOT_NAMED 1874-11-02 03:00:00 TS 18.0308 -77.1433 main 0 0 P____________P AL071874 18.0425 -77.1149 HU 80 1 18.0074 -77.2001 HU 80 6 353
1874304N14283 1874 21 NA CS NOT_NAMED 1874-11-02 06:00:00 TS 18.3333 -77.1667 70 hurdat_atl main 0 0 O____________O hurdat_atl AL071874 18.4000 -77.0000 HU 70 1 18.2000 -77.5000 HU 75 6 356
1874304N14283 1874 21 NA CS NOT_NAMED 1874-11-02 09:00:00 TS 18.6042 -77.1800 main 22 22 P____________P AL071874 18.7425 -76.8224 HU 65 1 18.3277 -77.8950 HU 72 6 4
1874304N14283 1874 21 NA CS NOT_NAMED 1874-11-02 12:00:00 TS 18.9000 -77.1333 60 hurdat_atl main 55 55 O____________O hurdat_atl AL071874 19.1000 -76.6000 TS 60 0 18.5000 -78.2000 HU 70 7 15
1874304N14283 1874 21 NA CS NOT_NAMED 1874-11-02 15:00:00 TS 19.2808 -76.9843 main 67 39 P____________P AL071874 19.5075 -76.3426 TS 60 0 18.8274 -78.2676 HU 70 8 22
1874304N14283 1874 21 NA CS NOT_NAMED 1874-11-02 18:00:00 TS 19.6667 -76.8000 60 hurdat_atl main 30 0 O____________O hurdat_atl AL071874 19.9000 -76.1000 TS 60 0 19.2000 -78.2000 HU 70 8 23
1874304N14283 1874 21 NA NA NOT_NAMED 1874-11-02 21:00:00 TS 19.9841 -76.6715 main 0 0 P____________P AL071874 20.2224 -75.9423 TS 55 0 19.5075 -78.1300 HU 67 7 23
1874304N14283 1874 21 NA NA NOT_NAMED 1874-11-03 00:00:00 TS 20.2667 -76.5333 50 hurdat_atl main 0 0 O____________O hurdat_atl AL071874 20.5000 -75.8000 TS 50 0 19.8000 -78.0000 HU 65 6 29
1874304N14283 1874 21 NA NA NOT_NAMED 1874-11-03 03:00:00 TS 20.5383 -76.3433 main 0 0 P____________P AL071874 20.7575 -75.6075 TS 50 0 20.1000 -77.8150 HU 65 7 35
1874304N14283 1874 21 NA NA NOT_NAMED 1874-11-03 06:00:00 TS 20.8000 -76.1333 50 hurdat_atl main 0 0 O____________O hurdat_atl AL071874 21.0000 -75.4000 TS 50 0 20.4000 -77.6000 HU 65 6 35
1874304N14283 1874 21 NA NA NOT_NAMED 1874-11-03 09:00:00 TS 21.0516 -75.9531 main 0 0 P____________P AL071874 21.2349 -75.2148 TS 55 0 20.6848 -77.4296 HU 62 7 35
1874304N14283 1874 21 NA NA NOT_NAMED 1874-11-03 12:00:00 TS 21.3333 -75.7333 60 hurdat_atl main 33 33 O____________O hurdat_atl AL071874 21.5000 -75.0000 TS 60 0 21.0000 -77.2000 TS 60 8 39
1874304N14283 1874 21 NA NA NOT_NAMED 1874-11-03 15:00:00 TS 21.6776 -75.4150 main 80 80 P____________P AL071874 21.8201 -74.7075 TS 60 0 21.3926 -76.8302 TS 60 10 40
1874304N14283 1874 21 NA NA NOT_NAMED 1874-11-03 18:00:00 TS 22.0667 -75.0667 60 hurdat_atl main 133 133 O____________O hurdat_atl AL071874 22.2000 -74.4000 TS 60 0 21.8000 -76.4000 TS 60 10 37
1874304N14283 1874 21 NA NA NOT_NAMED 1874-11-03 21:00:00 TS 22.4883 -74.7615 main 186 186 P____________P AL071874 22.6574 -74.1425 TS 65 1 22.1499 -75.9997 TS 62 10 34
1874304N14283 1874 21 NA NA NOT_NAMED 1874-11-04 00:00:00 TS 22.9000 -74.4667 70 hurdat_atl main 217 213 O____________O hurdat_atl AL071874 23.1000 -73.9000 HU 70 1 22.5000 -75.6000 HU 65 9 36
1874304N14283 1874 21 NA NA NOT_NAMED 1874-11-04 03:00:00 TS 23.2383 -74.1615 main 240 240 P____________P AL071874 23.4075 -73.6422 HU 70 1 22.8999 -75.1999 HU 65 9 40
1874304N14283 1874 21 NA NA NOT_NAMED 1874-11-04 06:00:00 TS 23.5667 -73.8667 70 hurdat_atl main 277 275 O____________O hurdat_atl AL071874 23.7000 -73.4000 HU 70 1 23.3000 -74.8000 HU 65 8 35
1874304N14283 1874 21 NA NA NOT_NAMED 1874-11-04 09:00:00 TS 23.9170 -73.6341 main 304 304 P____________P AL071874 24.0699 -73.1997 HU 70 1 23.6111 -74.5028 HU 65 9 32
1874304N14283 1874 21 NA NA NOT_NAMED 1874-11-04 12:00:00 TS 24.3333 -73.3333 70 hurdat_atl main 346 346 O____________O hurdat_atl AL071874 24.5000 -73.0000 HU 70 1 24.0000 -74.0000 HU 65 12 37
1874304N14283 1874 21 NA NA NOT_NAMED 1874-11-04 15:00:00 TS 24.8537 -72.8569 main 413 413 P____________P AL071874 24.9851 -72.7631 HU 70 1 24.5907 -73.0445 HU 62 15 41
1874304N14283 1874 21 NA NA NOT_NAMED 1874-11-04 18:00:00 TS 25.4333 -72.2667 70 hurdat_atl main 474 O____________O hurdat_atl AL071874 25.5000 -72.5000 HU 70 1 25.3000 -71.8000 TS 60 16 43

About IBTrACS Database

This database is a web-friendly format of International Best Track Archive for Climate Stewardship (IBTrACS), a global best track data archive curated by NOAA dating back to 1842.

Updated: 2021-10-25